• Join FlightAware (Why Join?)
  • Login
  • US Flag 
05:19AM EST


 

Airport Tracker/Info


-or-


 

Live Flight TrackerFlight Track Log ✈ KAP4821 ✈ 14-May-2013 ✈ TKPN / NEV - TJSJ / SJU

Flight Track Log - Related Links

Times and Time Zones

All times are in EDT time to prevent confusion due to time zone crossing. See the KAP4821 flight status page for this flight to view local times or setup timezone preferences in your user account.

Time Position Orientation Groundspeed Altitude Reporting Facility
EDT Latitude Longitude Course Direction KTS MPH feet Rate Location/Type
02:21PM 17.2215 -62.6324 291° West  Level Estimated
02:22PM 17.2374 -62.6750 291° West  Level Estimated
02:23PM 17.2532 -62.7175 291° West  Level Estimated
02:24PM 17.2690 -62.7601 291° West  Level Estimated
02:25PM 17.2848 -62.8027 291° West  Level Estimated
02:26PM 17.3007 -62.8453 291° West  Level Estimated
02:27PM 17.3165 -62.8879 291° West  Level Estimated
02:28PM 17.3323 -62.9305 291° West  Level Estimated
02:29PM 17.3480 -62.9731 291° West  Level Estimated
02:30PM 17.3638 -63.0157 291° West  Level Estimated
02:31PM 17.3796 -63.0584 291° West  Level Estimated
02:32PM 17.3953 -63.1010 291° West  Level Estimated
02:33PM 17.4111 -63.1437 291° West  Level Estimated
02:34PM 17.4268 -63.1863 291° West  Level Estimated
02:35PM 17.4425 -63.2290 291° West  Level Estimated
02:36PM 17.4582 -63.2716 291° West  Level Estimated
02:37PM 17.4739 -63.3143 291° West  Level Estimated
02:38PM 17.4897 -63.3570 291° West  Level Estimated
02:39PM 17.5053 -63.3997 291° West  Level Estimated
02:40PM 17.5210 -63.4424 291° West  Level Estimated
02:41PM 17.5367 -63.4851 291° West  Level Estimated
02:42PM 17.5523 -63.5278 291° West  Level Estimated
02:43PM 17.5680 -63.5705 291° West  Level Estimated
02:44PM 17.5836 -63.6132 291° West  Level Estimated
02:45PM 17.5993 -63.6559 291° West  Level Estimated
02:46PM 17.6149 -63.6987 291° West  Level Estimated
02:47PM 17.6305 -63.7414 291° West  Level Estimated
02:48PM 17.6461 -63.7842 291° West  Level Estimated
02:49PM 17.6617 -63.8269 291° West  Level Estimated
02:50PM 17.6773 -63.8697 291° West  Level Estimated
02:51PM 17.6929 -63.9125 291° West  Level Estimated
02:52PM 17.7085 -63.9553 291° West  Level Estimated
02:53PM 17.7240 -63.9981 291° West  Level Estimated
02:54PM 17.7396 -64.0409 291° West  Level Estimated
02:55PM 17.7551 -64.0837 291° West  Level Estimated
02:56PM 17.7707 -64.1265 291° West  Level Estimated
02:57PM 17.7862 -64.1693 291° West  Level Estimated
02:58PM 17.8017 -64.2121 291° West  Level Estimated
02:59PM 17.8172 -64.2550 291° West  Level Estimated
03:00PM 17.8327 -64.2978 291° West  Level Estimated
03:01PM 17.8482 -64.3407 291° West  Level Estimated
03:02PM 17.8637 -64.3835 291° West  Level Estimated
03:03PM 17.8791 -64.4264 291° West  Level Estimated
03:04PM 17.8946 -64.4693 291° West  Level Estimated
03:05PM 17.9100 -64.5121 291° West  Level Estimated
03:06PM 17.9255 -64.5550 291° West  Level Estimated
03:07PM 17.9409 -64.5979 291° West  Level Estimated
03:08PM 17.9563 -64.6408 291° West  Level Estimated
03:09PM 17.9718 -64.6837 291° West  Level Estimated
03:10PM 17.9872 -64.7267 291° West  Level Estimated
03:11PM 18.0025 -64.7696 291° West  Level Estimated
03:12PM 18.0179 -64.8125 291° West  Level Estimated
03:13PM 18.0333 -64.8555 291° West  Level Estimated
03:14PM 18.0487 -64.8984 291° West  Level Estimated
03:15PM 18.0640 -64.9414 291° West  Level Estimated
03:16PM 18.0794 -64.9843 291° West  Level Estimated
03:17PM 18.0947 -65.0273 291° West  Level Estimated
03:18PM 18.1100 -65.0703 291° West  Level Estimated
03:19PM 18.1254 -65.1133 291° West  Level Estimated
03:20PM 18.1407 -65.1562 291° West  Level Estimated
03:21PM 18.1560 -65.1992 291° West  Level Estimated
03:22PM 18.1713 -65.2423 291° West  Level Estimated
03:23PM 18.1865 -65.2853 291° West  Level Estimated
03:24PM 18.2018 -65.3283 290° West  Level Estimated
03:25PM 18.2171 -65.3713 290° West  Level Estimated
03:26PM 18.2323 -65.4144 290° West  Level Estimated
03:27PM 18.2476 -65.4574 290° West  Level Estimated
03:28PM 18.2628 -65.5005 290° West  Level Estimated
03:29PM 18.2780 -65.5435 290° West  Level Estimated
03:30PM 18.2932 -65.5866 290° West  Level Estimated
03:31PM 18.3084 -65.6297 290° West  Level Estimated
03:32PM 18.3236 -65.6728 290° West  Level Estimated
03:33PM 18.3388 -65.7159 290° West  Level Estimated
03:34PM 18.3540 -65.7589 290° West  Level Estimated
03:35PM 18.3691 -65.8021 290° West  Level Estimated
03:36PM 18.3843 -65.8452 290° West  Level Estimated
03:37PM 18.3994 -65.8883 290° West  Level Estimated
03:38PM 18.4146 -65.9314 290° West  Level Estimated
03:39PM 18.4297 -65.9746 290° West  Level Estimated
03:40PM 18.4393 -66.0020 290° West  Level Estimated
03:41PM 18.4393 -66.0020 319° Northwest  Level Estimated
03:42PM 18.4393 -66.0020 319° Northwest  Level Estimated
03:43PM 18.4393 -66.0020 319° Northwest  Level Estimated
03:44PM 18.4393 -66.0020 319° Northwest  Level Estimated
03:45PM 18.4393 -66.0020 319° Northwest  Level Estimated
03:46PM 18.4393 -66.0020 319° Northwest  Level Estimated
03:47PM 18.4393 -66.0020 319° Northwest  Level Estimated
03:48PM 18.4393 -66.0020 319° Northwest  Level Estimated